createdAt,value
2016-11-27T00:00:30.270Z,0
2016-11-27T00:01:41.589Z,0
2016-11-27T00:02:53.479Z,0
2016-11-27T00:04:05.709Z,0
2016-11-27T00:05:17.142Z,0
2016-11-27T00:06:29.351Z,0
2016-11-27T00:07:41.545Z,0
2016-11-27T00:08:53.661Z,0
2016-11-27T00:10:04.622Z,0
2016-11-27T00:11:17.049Z,0
2016-11-27T00:12:27.422Z,0
2016-11-27T00:13:40.207Z,0
2016-11-27T00:14:51.474Z,0
2016-11-27T00:16:01.927Z,0
2016-11-27T00:17:15.226Z,0
2016-11-27T00:18:27.070Z,0
2016-11-27T00:19:39.180Z,0
2016-11-27T00:20:51.774Z,0
2016-11-27T00:22:04.512Z,0
2016-11-27T00:23:14.924Z,0
2016-11-27T00:24:25.455Z,0
2016-11-27T00:25:37.082Z,0
2016-11-27T00:26:49.198Z,0
2016-11-27T00:28:01.204Z,0
2016-11-27T00:29:13.488Z,0
2016-11-27T00:30:24.431Z,0
2016-11-27T00:31:36.577Z,0
2016-11-27T00:32:48.759Z,0
2016-11-27T00:33:59.733Z,0
2016-11-27T00:35:11.765Z,0
2016-11-27T00:36:25.074Z,0
2016-11-27T00:37:37.052Z,0
2016-11-27T00:38:49.730Z,0
2016-11-27T00:40:00.165Z,0
2016-11-27T00:41:11.549Z,0
2016-11-27T00:42:23.419Z,0
2016-11-27T00:43:36.052Z,0
2016-11-27T00:44:47.631Z,0
2016-11-27T00:45:59.834Z,0
2016-11-27T00:47:11.913Z,0
2016-11-27T00:48:23.857Z,0
2016-11-27T00:49:35.891Z,0
2016-11-27T00:50:47.306Z,0
2016-11-27T00:51:59.330Z,0
2016-11-27T00:53:12.103Z,0
2016-11-27T00:54:23.786Z,0
2016-11-27T00:55:36.358Z,0
2016-11-27T00:56:48.518Z,0
2016-11-27T00:58:00.497Z,0
2016-11-27T00:59:12.124Z,0
2016-11-27T01:00:23.807Z,0
2016-11-27T01:01:34.744Z,0
2016-11-27T01:02:46.697Z,0
2016-11-27T01:03:58.694Z,0
2016-11-27T01:05:09.956Z,0
2016-11-27T01:06:21.577Z,0
2016-11-27T01:07:32.104Z,0
2016-11-27T01:08:43.983Z,0
2016-11-27T01:09:55.583Z,0
2016-11-27T01:11:07.225Z,0
2016-11-27T01:12:18.998Z,0
2016-11-27T01:13:31.497Z,0
2016-11-27T01:14:44.682Z,0
2016-11-27T01:15:57.392Z,0
2016-11-27T01:17:09.461Z,0
2016-11-27T01:18:22.222Z,0
2016-11-27T01:19:34.119Z,0
2016-11-27T01:20:45.669Z,0
2016-11-27T01:21:57.721Z,0
2016-11-27T01:23:10.617Z,0
2016-11-27T01:24:22.888Z,0
2016-11-27T01:25:34.109Z,0
2016-11-27T01:26:46.392Z,0
2016-11-27T01:27:57.676Z,0
2016-11-27T01:29:08.510Z,0
2016-11-27T01:30:19.786Z,0
2016-11-27T01:31:33.071Z,0
2016-11-27T01:32:45.040Z,0
2016-11-27T01:33:57.327Z,0
2016-11-27T01:35:08.986Z,0
2016-11-27T01:36:20.464Z,0
2016-11-27T01:37:33.255Z,0
2016-11-27T01:38:44.822Z,0
2016-11-27T01:39:56.742Z,0
2016-11-27T01:41:09.447Z,0
2016-11-27T01:42:22.055Z,0
2016-11-27T01:43:34.831Z,0
2016-11-27T01:44:46.640Z,0
2016-11-27T01:45:58.859Z,0
2016-11-27T01:47:11.540Z,0
2016-11-27T01:48:22.036Z,0
2016-11-27T01:49:34.251Z,0
2016-11-27T01:50:46.231Z,0
2016-11-27T01:51:57.228Z,0
2016-11-27T01:53:09.922Z,0
2016-11-27T01:54:20.989Z,0
2016-11-27T01:55:33.333Z,0
2016-11-27T01:56:45.344Z,0
2016-11-27T01:57:56.314Z,0
2016-11-27T01:59:08.326Z,0
2016-11-27T02:00:20.387Z,0
2016-11-27T02:01:32.372Z,0
2016-11-27T02:02:45.615Z,0
2016-11-27T02:03:56.811Z,0
2016-11-27T02:05:08.325Z,0
2016-11-27T02:06:20.537Z,0
2016-11-27T02:07:32.220Z,0
2016-11-27T02:08:43.557Z,0
2016-11-27T02:09:54.802Z,0
2016-11-27T02:11:07.166Z,0
2016-11-27T02:12:19.334Z,0
2016-11-27T02:13:31.826Z,0
2016-11-27T02:14:44.283Z,0
2016-11-27T02:15:57.129Z,0
2016-11-27T02:17:07.424Z,0
2016-11-27T02:18:20.257Z,0
2016-11-27T02:19:31.460Z,0
2016-11-27T02:20:41.952Z,0
2016-11-27T02:21:53.947Z,0
2016-11-27T02:23:05.402Z,0
2016-11-27T02:24:16.815Z,0
2016-11-27T02:25:28.642Z,0
2016-11-27T02:26:41.944Z,0
2016-11-27T02:27:54.284Z,0
2016-11-27T02:29:06.526Z,0
2016-11-27T02:30:18.053Z,0
2016-11-27T02:31:29.057Z,0
2016-11-27T02:32:41.308Z,0
2016-11-27T02:33:53.952Z,0
2016-11-27T02:35:06.061Z,0
2016-11-27T02:36:17.227Z,0
2016-11-27T02:37:29.358Z,0
2016-11-27T02:38:41.421Z,0
2016-11-27T02:39:53.878Z,0
2016-11-27T02:41:06.085Z,0
2016-11-27T02:42:17.585Z,0
2016-11-27T02:43:27.994Z,0
2016-11-27T02:44:40.326Z,0
2016-11-27T02:45:52.585Z,0
2016-11-27T02:47:04.048Z,0
2016-11-27T02:48:16.339Z,0
2016-11-27T02:49:28.030Z,0
2016-11-27T02:50:40.244Z,0
2016-11-27T02:51:52.425Z,0
2016-11-27T02:53:04.433Z,0
2016-11-27T02:54:15.362Z,0
2016-11-27T02:55:27.745Z,0
2016-11-27T02:56:39.809Z,0
2016-11-27T02:57:52.452Z,0
2016-11-27T02:59:04.745Z,0
2016-11-27T03:00:18.171Z,0
2016-11-27T03:01:29.586Z,0
2016-11-27T03:02:41.738Z,0
2016-11-27T03:03:54.539Z,0
2016-11-27T03:05:07.192Z,0
2016-11-27T03:06:19.455Z,0
2016-11-27T03:07:31.676Z,0
2016-11-27T03:08:43.739Z,0
2016-11-27T03:09:55.330Z,0
2016-11-27T03:11:07.398Z,0
2016-11-27T03:12:20.007Z,0
2016-11-27T03:13:31.276Z,0
2016-11-27T03:14:42.730Z,0
2016-11-27T03:15:54.643Z,0
2016-11-27T03:17:06.298Z,0
2016-11-27T03:18:18.969Z,0
2016-11-27T03:19:29.580Z,0
2016-11-27T03:20:40.870Z,0
2016-11-27T03:21:52.083Z,0
2016-11-27T03:23:03.710Z,0
2016-11-27T03:24:16.029Z,0
2016-11-27T03:25:27.223Z,0
2016-11-27T03:26:39.232Z,0
2016-11-27T03:27:51.401Z,0
2016-11-27T03:29:01.802Z,0
2016-11-27T03:30:14.528Z,0
2016-11-27T03:31:27.005Z,0
2016-11-27T03:32:40.314Z,0
2016-11-27T03:33:50.868Z,0
2016-11-27T03:35:03.283Z,0
2016-11-27T03:36:16.154Z,0
2016-11-27T03:37:27.008Z,0
2016-11-27T03:38:37.751Z,0
2016-11-27T03:39:49.594Z,0
2016-11-27T03:41:01.845Z,0
2016-11-27T03:42:14.299Z,0
2016-11-27T03:43:26.209Z,0
2016-11-27T03:44:37.203Z,0
2016-11-27T03:45:48.478Z,0
2016-11-27T03:46:58.944Z,0
2016-11-27T03:48:11.526Z,0
2016-11-27T03:49:21.570Z,0
2016-11-27T03:50:33.449Z,0
2016-11-27T03:51:45.197Z,0
2016-11-27T03:52:58.085Z,0
2016-11-27T03:54:10.192Z,0
2016-11-27T03:55:21.884Z,0
2016-11-27T03:56:33.789Z,0
2016-11-27T03:57:47.040Z,0
2016-11-27T03:58:58.640Z,0
2016-11-27T04:00:10.762Z,0
2016-11-27T04:01:22.664Z,0
2016-11-27T04:02:34.100Z,0
2016-11-27T04:03:46.327Z,0
2016-11-27T04:04:58.127Z,0
2016-11-27T04:06:09.786Z,0
2016-11-27T04:07:22.342Z,0
2016-11-27T04:08:34.767Z,0
2016-11-27T04:09:46.521Z,0
2016-11-27T04:10:58.058Z,0
2016-11-27T04:12:09.815Z,0
2016-11-27T04:13:22.333Z,0
2016-11-27T04:14:33.279Z,0
2016-11-27T04:15:44.864Z,0
2016-11-27T04:16:56.324Z,0
2016-11-27T04:18:08.493Z,0
2016-11-27T04:19:18.361Z,0
2016-11-27T04:20:30.178Z,0
2016-11-27T04:21:40.144Z,0
2016-11-27T04:22:50.642Z,0
2016-11-27T04:24:01.758Z,0
2016-11-27T04:25:12.687Z,0
2016-11-27T04:26:24.112Z,0
2016-11-27T04:27:36.424Z,0
2016-11-27T04:28:48.081Z,0
2016-11-27T04:29:59.767Z,0
2016-11-27T04:31:10.630Z,0
2016-11-27T04:32:20.951Z,0
2016-11-27T04:33:33.075Z,0
2016-11-27T04:34:44.773Z,0
2016-11-27T04:35:56.869Z,0
2016-11-27T04:37:08.385Z,0
2016-11-27T04:38:21.200Z,0
2016-11-27T04:39:33.203Z,0
2016-11-27T04:40:44.086Z,0
2016-11-27T04:41:56.785Z,0
2016-11-27T04:43:08.245Z,0
2016-11-27T04:44:20.853Z,0
2016-11-27T04:45:34.220Z,0
2016-11-27T04:46:45.026Z,0
2016-11-27T04:47:56.056Z,0
2016-11-27T04:49:07.307Z,0
2016-11-27T04:50:19.211Z,0
2016-11-27T04:51:31.873Z,0
2016-11-27T04:52:43.497Z,0
2016-11-27T04:53:56.315Z,0
2016-11-27T04:55:08.553Z,0
2016-11-27T04:56:18.992Z,0
2016-11-27T04:57:32.306Z,0
2016-11-27T04:58:45.416Z,0
2016-11-27T04:59:57.473Z,0
2016-11-27T05:01:08.676Z,0
2016-11-27T05:02:20.333Z,0
2016-11-27T05:03:32.097Z,0
2016-11-27T05:04:43.952Z,0
2016-11-27T05:05:54.003Z,0
2016-11-27T05:07:05.503Z,0
2016-11-27T05:08:16.866Z,0
2016-11-27T05:09:29.188Z,0
2016-11-27T05:10:41.045Z,0
2016-11-27T05:11:52.773Z,0
2016-11-27T05:13:04.326Z,0
2016-11-27T05:14:15.790Z,0
2016-11-27T05:15:26.933Z,0
2016-11-27T05:16:38.842Z,0
2016-11-27T05:17:51.191Z,0
2016-11-27T05:19:02.723Z,0
2016-11-27T05:20:14.355Z,0
2016-11-27T05:21:27.048Z,0
2016-11-27T05:22:39.827Z,0
2016-11-27T05:23:51.278Z,0
2016-11-27T05:25:02.296Z,0
2016-11-27T05:26:14.835Z,0
2016-11-27T05:27:27.143Z,0
2016-11-27T05:28:38.958Z,0
2016-11-27T05:29:50.651Z,0
2016-11-27T05:31:03.552Z,0
2016-11-27T05:32:16.308Z,0
2016-11-27T05:33:28.635Z,0
2016-11-27T05:34:40.881Z,0
2016-11-27T05:35:52.053Z,0
2016-11-27T05:37:03.065Z,0
2016-11-27T05:38:16.256Z,0
2016-11-27T05:39:27.331Z,0
2016-11-27T05:40:39.351Z,0
2016-11-27T05:41:50.501Z,0
2016-11-27T05:43:03.065Z,0
2016-11-27T05:44:15.692Z,0
2016-11-27T05:45:26.892Z,0
2016-11-27T05:46:39.151Z,0
2016-11-27T05:47:50.462Z,0
2016-11-27T05:49:01.797Z,0
2016-11-27T05:50:13.375Z,0
2016-11-27T05:51:25.160Z,0
2016-11-27T05:52:36.672Z,0
2016-11-27T05:53:49.381Z,0
2016-11-27T05:55:01.381Z,0
2016-11-27T05:56:13.247Z,0
2016-11-27T05:57:25.463Z,0
2016-11-27T05:58:38.209Z,0
2016-11-27T05:59:50.110Z,0
2016-11-27T06:01:00.657Z,0
2016-11-27T06:02:11.263Z,0
2016-11-27T06:03:23.358Z,0
2016-11-27T06:04:35.714Z,0
2016-11-27T06:05:48.481Z,0
2016-11-27T06:07:01.285Z,0
2016-11-27T06:08:12.442Z,0
2016-11-27T06:09:22.690Z,0
2016-11-27T06:10:33.639Z,0
2016-11-27T06:11:43.900Z,0
2016-11-27T06:12:54.803Z,0
2016-11-27T06:14:06.048Z,0
2016-11-27T06:15:17.100Z,0
2016-11-27T06:16:30.324Z,0
2016-11-27T06:17:42.194Z,0
2016-11-27T06:18:54.374Z,0
2016-11-27T06:20:04.428Z,0
2016-11-27T06:21:16.344Z,0
2016-11-27T06:22:27.261Z,0
2016-11-27T06:23:39.031Z,0
2016-11-27T06:24:51.309Z,0
2016-11-27T06:26:01.443Z,0
2016-11-27T06:27:13.300Z,0
2016-11-27T06:28:24.545Z,0
2016-11-27T06:29:35.888Z,0
2016-11-27T06:30:47.940Z,0
2016-11-27T06:32:00.507Z,0
2016-11-27T06:33:12.987Z,0
2016-11-27T06:34:24.840Z,0
2016-11-27T06:35:38.086Z,0
2016-11-27T06:36:49.016Z,0
2016-11-27T06:38:00.402Z,0
2016-11-27T06:39:11.580Z,0
2016-11-27T06:40:23.283Z,0
2016-11-27T06:41:35.405Z,0
2016-11-27T06:42:46.791Z,0
2016-11-27T06:43:58.313Z,0
2016-11-27T06:45:10.537Z,0
2016-11-27T06:46:22.226Z,0
2016-11-27T06:47:33.996Z,0
2016-11-27T06:48:45.228Z,0
2016-11-27T06:49:57.169Z,0
2016-11-27T06:51:09.372Z,0
2016-11-27T06:52:21.620Z,0
2016-11-27T06:53:33.648Z,0
2016-11-27T06:54:45.166Z,0
2016-11-27T06:55:58.375Z,0
2016-11-27T06:57:10.143Z,0
2016-11-27T06:58:22.334Z,0
2016-11-27T06:59:33.257Z,0
2016-11-27T07:00:44.600Z,5
2016-11-27T07:01:57.065Z,5
2016-11-27T07:03:09.804Z,5
2016-11-27T07:04:21.990Z,5
2016-11-27T07:05:33.238Z,5
2016-11-27T07:06:45.738Z,5
2016-11-27T07:07:57.787Z,10
2016-11-27T07:09:10.063Z,10
2016-11-27T07:10:22.378Z,10
2016-11-27T07:11:35.120Z,10
2016-11-27T07:12:48.803Z,10
2016-11-27T07:14:01.538Z,10
2016-11-27T07:15:12.800Z,10
2016-11-27T07:16:24.973Z,10
2016-11-27T07:17:37.406Z,15
2016-11-27T07:18:49.559Z,15
2016-11-27T07:20:00.751Z,20
2016-11-27T07:21:11.717Z,25
2016-11-27T07:22:22.570Z,30
2016-11-27T07:23:33.793Z,30
2016-11-27T07:24:45.514Z,35
2016-11-27T07:25:58.245Z,35
2016-11-27T07:27:11.451Z,35
2016-11-27T07:28:23.608Z,40
2016-11-27T07:29:35.597Z,40
2016-11-27T07:30:46.908Z,40
2016-11-27T07:31:57.952Z,45
2016-11-27T07:33:09.176Z,45
2016-11-27T07:34:21.275Z,50
2016-11-27T07:35:32.821Z,50
2016-11-27T07:36:44.012Z,55
2016-11-27T07:37:56.732Z,60
2016-11-27T07:39:08.190Z,60
2016-11-27T07:40:19.821Z,60
2016-11-27T07:41:32.877Z,60
2016-11-27T07:42:44.096Z,60
2016-11-27T07:43:56.439Z,70
2016-11-27T07:45:07.442Z,75
2016-11-27T07:46:19.255Z,80
2016-11-27T07:47:31.365Z,80
2016-11-27T07:48:43.385Z,75
2016-11-27T07:49:53.741Z,75
2016-11-27T07:51:05.227Z,80
2016-11-27T07:52:17.982Z,85
2016-11-27T07:53:31.074Z,90
2016-11-27T07:54:43.211Z,95
2016-11-27T07:55:53.920Z,100
2016-11-27T07:57:06.636Z,90
2016-11-27T07:58:18.077Z,80
2016-11-27T07:59:31.184Z,80
2016-11-27T08:00:43.914Z,85
2016-11-27T08:01:55.781Z,85
2016-11-27T08:03:07.973Z,85
2016-11-27T08:04:18.516Z,90
2016-11-27T08:05:29.844Z,95
2016-11-27T08:06:41.624Z,90
2016-11-27T08:07:52.531Z,90
2016-11-27T08:09:04.233Z,95
2016-11-27T08:10:17.033Z,100
2016-11-27T08:11:30.274Z,105
2016-11-27T08:12:41.289Z,105
2016-11-27T08:13:53.763Z,110
2016-11-27T08:15:06.228Z,110
2016-11-27T08:16:17.928Z,120
2016-11-27T08:17:29.680Z,120
2016-11-27T08:18:41.550Z,120
2016-11-27T08:19:53.762Z,105
2016-11-27T08:21:06.174Z,95
2016-11-27T08:22:18.690Z,85
2016-11-27T08:23:30.750Z,85
2016-11-27T08:24:42.076Z,85
2016-11-27T08:25:53.619Z,85
2016-11-27T08:27:04.430Z,85
2016-11-27T08:28:17.188Z,95
2016-11-27T08:29:28.994Z,120
2016-11-27T08:30:41.015Z,125
2016-11-27T08:31:52.932Z,125
2016-11-27T08:33:05.042Z,110
2016-11-27T08:34:17.138Z,100
2016-11-27T08:35:29.210Z,105
2016-11-27T08:36:41.868Z,105
2016-11-27T08:37:54.071Z,110
2016-11-27T08:39:07.225Z,120
2016-11-27T08:40:18.240Z,115
2016-11-27T08:41:29.980Z,140
2016-11-27T08:42:42.115Z,140
2016-11-27T08:43:54.682Z,145
2016-11-27T08:45:06.858Z,130
2016-11-27T08:46:19.299Z,130
2016-11-27T08:47:31.374Z,145
2016-11-27T08:48:42.849Z,130
2016-11-27T08:49:53.876Z,135
2016-11-27T08:51:05.747Z,150
2016-11-27T08:52:17.977Z,160
2016-11-27T08:53:28.407Z,155
2016-11-27T08:54:40.709Z,135
2016-11-27T08:55:52.798Z,145
2016-11-27T08:57:04.330Z,180
2016-11-27T08:58:14.765Z,185
2016-11-27T08:59:26.825Z,190
2016-11-27T09:00:38.665Z,150
2016-11-27T09:01:51.029Z,140
2016-11-27T09:03:02.485Z,135
2016-11-27T09:04:15.192Z,130
2016-11-27T09:05:26.658Z,125
2016-11-27T09:06:39.368Z,125
2016-11-27T09:07:51.138Z,130
2016-11-27T09:09:04.261Z,135
2016-11-27T09:10:16.448Z,135
2016-11-27T09:11:28.003Z,135
2016-11-27T09:12:38.853Z,135
2016-11-27T09:13:51.420Z,130
2016-11-27T09:15:02.698Z,130
2016-11-27T09:16:14.492Z,140
2016-11-27T09:17:25.831Z,240
2016-11-27T09:18:37.909Z,280
2016-11-27T09:19:50.061Z,255
2016-11-27T09:21:01.819Z,180
2016-11-27T09:22:12.844Z,240
2016-11-27T09:23:23.949Z,155
2016-11-27T09:24:35.999Z,180
2016-11-27T09:25:47.166Z,165
2016-11-27T09:26:59.107Z,165
2016-11-27T09:28:09.466Z,175
2016-11-27T09:29:21.566Z,185
2016-11-27T09:30:33.468Z,180
2016-11-27T09:31:45.686Z,180
2016-11-27T09:32:57.498Z,190
2016-11-27T09:34:08.570Z,200
2016-11-27T09:35:19.902Z,205
2016-11-27T09:36:32.409Z,185
2016-11-27T09:37:44.206Z,170
2016-11-27T09:38:55.916Z,200
2016-11-27T09:40:07.457Z,205
2016-11-27T09:41:18.239Z,195
2016-11-27T09:42:29.705Z,170
2016-11-27T09:43:41.081Z,135
2016-11-27T09:44:51.973Z,130
2016-11-27T09:46:03.446Z,130
2016-11-27T09:47:14.989Z,135
2016-11-27T09:48:26.603Z,140
2016-11-27T09:49:39.173Z,150
2016-11-27T09:50:50.422Z,170
2016-11-27T09:52:03.236Z,195
2016-11-27T09:53:14.833Z,210
2016-11-27T09:54:26.285Z,230
2016-11-27T09:55:38.909Z,240
2016-11-27T09:56:50.539Z,250
2016-11-27T09:58:02.127Z,260
2016-11-27T09:59:14.019Z,270
2016-11-27T10:00:24.431Z,300
2016-11-27T10:01:36.082Z,285
2016-11-27T10:02:48.025Z,270
2016-11-27T10:03:59.562Z,250
2016-11-27T10:05:10.127Z,235
2016-11-27T10:06:21.494Z,225
2016-11-27T10:07:32.816Z,210
2016-11-27T10:08:43.962Z,215
2016-11-27T10:09:57.140Z,220
2016-11-27T10:11:07.519Z,220
2016-11-27T10:12:19.531Z,205
2016-11-27T10:13:31.460Z,190
2016-11-27T10:14:43.165Z,190
2016-11-27T10:15:54.671Z,190
2016-11-27T10:17:05.784Z,175
2016-11-27T10:18:16.987Z,165
2016-11-27T10:19:29.062Z,160
2016-11-27T10:20:39.931Z,155
2016-11-27T10:21:50.793Z,155
2016-11-27T10:23:02.334Z,150
2016-11-27T10:24:12.562Z,155
2016-11-27T10:25:24.423Z,160
2016-11-27T10:26:35.044Z,155
2016-11-27T10:27:46.337Z,150
2016-11-27T10:28:58.900Z,150
2016-11-27T10:30:10.605Z,155
2016-11-27T10:31:21.489Z,160
2016-11-27T10:32:34.184Z,175
2016-11-27T10:33:46.024Z,165
2016-11-27T10:34:57.920Z,165
2016-11-27T10:36:09.829Z,165
2016-11-27T10:37:22.684Z,170
2016-11-27T10:38:34.381Z,180
2016-11-27T10:39:46.650Z,180
2016-11-27T10:40:58.799Z,180
2016-11-27T10:42:11.125Z,175
2016-11-27T10:43:21.826Z,175
2016-11-27T10:44:32.399Z,185
2016-11-27T10:45:44.126Z,190
2016-11-27T10:46:55.651Z,190
2016-11-27T10:48:07.033Z,195
2016-11-27T10:49:17.854Z,200
2016-11-27T10:50:29.422Z,205
2016-11-27T10:51:40.272Z,205
2016-11-27T10:52:52.072Z,200
2016-11-27T10:54:02.372Z,200
2016-11-27T10:55:13.662Z,205
2016-11-27T10:56:24.997Z,200
2016-11-27T10:57:36.636Z,205
2016-11-27T10:58:48.853Z,205
2016-11-27T11:00:00.248Z,210
2016-11-27T11:01:12.523Z,210
2016-11-27T11:02:24.510Z,210
2016-11-27T11:03:34.597Z,210
2016-11-27T11:04:46.179Z,205
2016-11-27T11:05:57.797Z,205
2016-11-27T11:07:09.906Z,200
2016-11-27T11:08:21.600Z,195
2016-11-27T11:09:33.221Z,190
2016-11-27T11:10:44.958Z,195
2016-11-27T11:11:57.006Z,195
2016-11-27T11:13:08.230Z,200
2016-11-27T11:14:19.491Z,200
2016-11-27T11:15:30.673Z,195
2016-11-27T11:16:41.311Z,185
2016-11-27T11:17:53.117Z,185
2016-11-27T11:19:02.876Z,195
2016-11-27T11:20:13.162Z,205
2016-11-27T11:21:24.218Z,215
2016-11-27T11:22:36.398Z,215
2016-11-27T11:23:46.973Z,210
2016-11-27T11:24:59.081Z,205
2016-11-27T11:26:10.882Z,200
2016-11-27T11:27:21.544Z,200
2016-11-27T11:28:34.254Z,200
2016-11-27T11:29:46.349Z,200
2016-11-27T11:30:56.366Z,200
2016-11-27T11:32:08.640Z,200
2016-11-27T11:33:20.303Z,200
2016-11-27T11:34:32.613Z,205
2016-11-27T11:35:43.647Z,205
2016-11-27T11:36:55.578Z,200
2016-11-27T11:38:07.145Z,190
2016-11-27T11:39:17.894Z,180
2016-11-27T11:40:30.544Z,175
2016-11-27T11:41:42.519Z,170
2016-11-27T11:42:54.634Z,170
2016-11-27T11:44:07.121Z,180
2016-11-27T11:45:19.212Z,190
2016-11-27T11:46:30.652Z,200
2016-11-27T11:47:43.321Z,205
2016-11-27T11:48:54.944Z,200
2016-11-27T11:50:05.633Z,195
2016-11-27T11:51:17.355Z,195
2016-11-27T11:52:28.652Z,195
2016-11-27T11:53:40.964Z,205
2016-11-27T11:54:51.529Z,210
2016-11-27T11:56:03.028Z,210
2016-11-27T11:57:14.980Z,215
2016-11-27T11:58:26.866Z,215
2016-11-27T11:59:39.224Z,215
2016-11-27T12:00:51.783Z,210
2016-11-27T12:02:03.881Z,210
2016-11-27T12:03:15.003Z,215
2016-11-27T12:04:26.152Z,225
2016-11-27T12:05:36.675Z,240
2016-11-27T12:06:48.527Z,245
2016-11-27T12:08:00.242Z,245
2016-11-27T12:09:13.400Z,240
2016-11-27T12:10:25.272Z,235
2016-11-27T12:11:36.876Z,230
2016-11-27T12:12:47.036Z,235
2016-11-27T12:13:58.673Z,235
2016-11-27T12:15:09.394Z,225
2016-11-27T12:16:22.464Z,210
2016-11-27T12:17:33.589Z,200
2016-11-27T12:18:45.058Z,185
2016-11-27T12:19:57.549Z,170
2016-11-27T12:21:09.654Z,170
2016-11-27T12:22:20.685Z,170
2016-11-27T12:23:32.719Z,170
2016-11-27T12:24:44.520Z,165
2016-11-27T12:25:54.646Z,165
2016-11-27T12:27:06.148Z,155
2016-11-27T12:28:17.567Z,155
2016-11-27T12:29:28.609Z,160
2016-11-27T12:30:40.418Z,165
2016-11-27T12:31:52.624Z,165
2016-11-27T12:33:05.403Z,155
2016-11-27T12:34:17.711Z,155
2016-11-27T12:35:29.724Z,150
2016-11-27T12:36:42.291Z,150
2016-11-27T12:37:53.124Z,150
2016-11-27T12:39:05.285Z,150
2016-11-27T12:40:15.642Z,150
2016-11-27T12:41:28.388Z,150
2016-11-27T12:42:40.042Z,155
2016-11-27T12:43:51.334Z,155
2016-11-27T12:45:02.293Z,150
2016-11-27T12:46:14.399Z,150
2016-11-27T12:47:26.609Z,145
2016-11-27T12:48:37.621Z,135
2016-11-27T12:49:50.179Z,130
2016-11-27T12:51:03.002Z,125
2016-11-27T12:52:15.690Z,125
2016-11-27T12:53:27.027Z,125
2016-11-27T12:54:39.632Z,130
2016-11-27T12:55:51.784Z,140
2016-11-27T12:57:03.366Z,140
2016-11-27T12:58:14.841Z,135
2016-11-27T12:59:26.594Z,120
2016-11-27T13:00:39.761Z,120
2016-11-27T13:01:50.444Z,120
2016-11-27T13:03:02.048Z,120
2016-11-27T13:04:13.678Z,115
2016-11-27T13:05:26.905Z,105
2016-11-27T13:06:38.469Z,100
2016-11-27T13:07:48.926Z,105
2016-11-27T13:09:01.087Z,120
2016-11-27T13:10:11.394Z,125
2016-11-27T13:11:22.681Z,115
2016-11-27T13:12:34.028Z,110
2016-11-27T13:13:45.050Z,110
2016-11-27T13:14:56.979Z,115
2016-11-27T13:16:08.319Z,125
2016-11-27T13:17:19.776Z,135
2016-11-27T13:18:31.884Z,140
2016-11-27T13:19:44.051Z,140
2016-11-27T13:20:54.974Z,140
2016-11-27T13:22:06.545Z,135
2016-11-27T13:23:17.633Z,135
2016-11-27T13:24:28.923Z,130
2016-11-27T13:25:39.308Z,130
2016-11-27T13:26:52.535Z,125
2016-11-27T13:28:03.703Z,115
2016-11-27T13:29:15.321Z,110
2016-11-27T13:30:27.100Z,110
2016-11-27T13:31:39.225Z,110
2016-11-27T13:32:48.878Z,110
2016-11-27T13:34:00.559Z,105
2016-11-27T13:35:13.004Z,100
2016-11-27T13:36:25.079Z,95
2016-11-27T13:37:37.022Z,85
2016-11-27T13:38:49.031Z,85
2016-11-27T13:40:01.049Z,80
2016-11-27T13:41:12.971Z,75
2016-11-27T13:42:24.025Z,70
2016-11-27T13:43:36.127Z,60
2016-11-27T13:44:47.968Z,50
2016-11-27T13:46:00.771Z,45
2016-11-27T13:47:12.822Z,40
2016-11-27T13:48:25.242Z,40
2016-11-27T13:49:36.523Z,40
2016-11-27T13:50:47.439Z,40
2016-11-27T13:51:59.264Z,40
2016-11-27T13:53:11.921Z,40
2016-11-27T13:54:23.136Z,40
2016-11-27T13:55:35.648Z,45
2016-11-27T13:56:48.761Z,50
2016-11-27T13:58:00.906Z,55
2016-11-27T13:59:11.318Z,65
2016-11-27T14:00:23.346Z,75
2016-11-27T14:01:35.565Z,75
2016-11-27T14:02:47.040Z,75
2016-11-27T14:03:58.463Z,75
2016-11-27T14:05:09.579Z,75
2016-11-27T14:06:21.896Z,75
2016-11-27T14:07:32.326Z,80
2016-11-27T14:08:43.979Z,70
2016-11-27T14:09:55.678Z,70
2016-11-27T14:11:08.955Z,70
2016-11-27T14:12:20.612Z,75
2016-11-27T14:13:32.508Z,75
2016-11-27T14:14:43.863Z,75
2016-11-27T14:15:55.535Z,75
2016-11-27T14:17:07.269Z,75
2016-11-27T14:18:18.027Z,75
2016-11-27T14:19:30.018Z,75
2016-11-27T14:20:40.911Z,75
2016-11-27T14:21:52.628Z,75
2016-11-27T14:23:03.818Z,75
2016-11-27T14:24:15.064Z,70
2016-11-27T14:25:25.547Z,70
2016-11-27T14:26:38.306Z,65
2016-11-27T14:27:50.787Z,60
2016-11-27T14:29:02.628Z,50
2016-11-27T14:30:13.446Z,50
2016-11-27T14:31:24.017Z,50
2016-11-27T14:32:36.067Z,55
2016-11-27T14:33:47.425Z,65
2016-11-27T14:34:59.906Z,65
2016-11-27T14:36:12.494Z,65
2016-11-27T14:37:23.648Z,65
2016-11-27T14:38:35.503Z,60
2016-11-27T14:39:48.167Z,65
2016-11-27T14:41:00.536Z,65
2016-11-27T14:42:12.447Z,70
2016-11-27T14:43:23.349Z,70
2016-11-27T14:44:34.893Z,70
2016-11-27T14:45:46.385Z,70
2016-11-27T14:46:58.412Z,75
2016-11-27T14:48:11.317Z,75
2016-11-27T14:49:24.367Z,70
2016-11-27T14:50:36.439Z,70
2016-11-27T14:51:48.075Z,70
2016-11-27T14:52:58.755Z,65
2016-11-27T14:54:09.973Z,65
2016-11-27T14:55:20.954Z,60
2016-11-27T14:56:33.626Z,60
2016-11-27T14:57:43.967Z,55
2016-11-27T14:58:55.990Z,55
2016-11-27T15:00:08.666Z,60
2016-11-27T15:01:20.708Z,60
2016-11-27T15:02:31.211Z,55
2016-11-27T15:03:43.378Z,50
2016-11-27T15:04:55.481Z,50
2016-11-27T15:06:06.808Z,55
2016-11-27T15:07:18.723Z,55
2016-11-27T15:08:31.220Z,50
2016-11-27T15:09:42.506Z,45
2016-11-27T15:10:53.751Z,40
2016-11-27T15:12:05.793Z,30
2016-11-27T15:13:17.671Z,20
2016-11-27T15:14:29.601Z,15
2016-11-27T15:15:41.175Z,15
2016-11-27T15:16:52.508Z,20
2016-11-27T15:18:04.432Z,20
2016-11-27T15:19:16.128Z,20
2016-11-27T15:20:27.901Z,25
2016-11-27T15:21:39.020Z,25
2016-11-27T15:22:51.086Z,25
2016-11-27T15:24:02.129Z,25
2016-11-27T15:25:12.735Z,25
2016-11-27T15:26:23.900Z,25
2016-11-27T15:27:35.832Z,30
2016-11-27T15:28:47.954Z,35
2016-11-27T15:29:59.414Z,40
2016-11-27T15:31:11.666Z,40
2016-11-27T15:32:22.994Z,35
2016-11-27T15:33:34.008Z,30
2016-11-27T15:34:45.929Z,25
2016-11-27T15:35:57.965Z,25
2016-11-27T15:37:08.621Z,25
2016-11-27T15:38:21.388Z,25
2016-11-27T15:39:32.175Z,25
2016-11-27T15:40:43.226Z,25
2016-11-27T15:41:53.699Z,20
2016-11-27T15:43:04.865Z,20
2016-11-27T15:44:16.991Z,20
2016-11-27T15:45:27.879Z,20
2016-11-27T15:46:38.785Z,20
2016-11-27T15:47:49.982Z,20
2016-11-27T15:49:01.818Z,15
2016-11-27T15:50:13.803Z,15
2016-11-27T15:51:24.651Z,15
2016-11-27T15:52:36.989Z,15
2016-11-27T15:53:47.905Z,15
2016-11-27T15:54:59.633Z,10
2016-11-27T15:56:11.455Z,10
2016-11-27T15:57:23.584Z,5
2016-11-27T15:58:35.638Z,5
2016-11-27T15:59:47.349Z,5
2016-11-27T16:00:56.830Z,5
2016-11-27T16:02:09.043Z,5
2016-11-27T16:03:20.179Z,5
2016-11-27T16:04:33.224Z,5
2016-11-27T16:05:45.872Z,0
2016-11-27T16:06:56.518Z,0
2016-11-27T16:08:08.684Z,0
2016-11-27T16:09:20.209Z,0
2016-11-27T16:10:31.529Z,0
2016-11-27T16:11:44.204Z,0
2016-11-27T16:12:55.797Z,0
2016-11-27T16:14:07.915Z,0
2016-11-27T16:15:19.930Z,0
2016-11-27T16:16:30.980Z,0
2016-11-27T16:17:43.160Z,0
2016-11-27T16:18:53.855Z,0
2016-11-27T16:20:06.653Z,0
2016-11-27T16:21:18.545Z,0
2016-11-27T16:22:29.616Z,0
2016-11-27T16:23:42.362Z,0
2016-11-27T16:24:55.118Z,0
2016-11-27T16:26:06.673Z,0
2016-11-27T16:27:19.453Z,0
2016-11-27T16:28:32.572Z,0
2016-11-27T16:29:44.384Z,0
2016-11-27T16:30:56.691Z,0
2016-11-27T16:32:08.186Z,0
2016-11-27T16:33:19.422Z,0
2016-11-27T16:34:30.768Z,0
2016-11-27T16:35:42.414Z,0
2016-11-27T16:36:55.472Z,0
2016-11-27T16:38:07.473Z,0
2016-11-27T16:39:18.241Z,0
2016-11-27T16:40:29.920Z,0
2016-11-27T16:41:41.465Z,0
2016-11-27T16:42:52.913Z,0
2016-11-27T16:44:05.283Z,0
2016-11-27T16:45:14.978Z,0
2016-11-27T16:46:26.593Z,0
2016-11-27T16:47:36.835Z,0
2016-11-27T16:48:49.083Z,0
2016-11-27T16:49:59.665Z,0
2016-11-27T16:51:10.551Z,0
2016-11-27T16:52:20.901Z,0
2016-11-27T16:53:31.541Z,0
2016-11-27T16:54:43.132Z,0
2016-11-27T16:55:54.508Z,0
2016-11-27T16:57:05.012Z,0
2016-11-27T16:58:14.782Z,0
2016-11-27T16:59:24.645Z,0
2016-11-27T17:00:35.649Z,0
2016-11-27T17:01:46.666Z,0
2016-11-27T17:02:57.060Z,0
2016-11-27T17:04:08.654Z,0
2016-11-27T17:05:19.545Z,0
2016-11-27T17:06:31.306Z,0
2016-11-27T17:07:41.592Z,0
2016-11-27T17:08:52.808Z,0
2016-11-27T17:10:02.899Z,0